Time;durP1;ratioP1;P1;durP2;ratioP2;P2;SDS_P1;SDS_P2;PMS_P1;PMS_P2;Temp;Humidity;BMP_temperature;BMP_pressure;BME280_temperature;BME280_humidity;BME280_pressure;Samples;Min_cycle;Max_cycle;Signal;HPM_P1;HPM_P2
2023/02/23 00:01:57;;;;;;;27.95;17.05;;;;;;;8.92;93.63;100839.09;5080905;28;20044;-65
2023/02/23 00:04:24;;;;;;;25.85;16.98;;;;;;;8.76;94.38;100838.50;5099046;28;20071;-66
2023/02/23 00:06:52;;;;;;;28.13;18.20;;;;;;;8.94;93.92;100836.84;5097599;28;20047;-66
2023/02/23 00:09:23;;;;;;;25.63;17.65;;;;;;;9.02;93.48;100834.25;5079198;28;20052;-65
2023/02/23 00:11:56;;;;;;;25.67;17.15;;;;;;;8.88;93.18;100830.63;5060378;28;20040;-65
2023/02/23 00:14:29;;;;;;;23.60;17.45;;;;;;;9.04;93.50;100831.19;5096144;28;20055;-65
2023/02/23 00:16:58;;;;;;;27.70;17.15;;;;;;;8.94;94.17;100834.91;5094668;28;20040;-66
2023/02/23 00:19:26;;;;;;;27.63;19.13;;;;;;;8.85;92.64;100833.16;5096639;28;20055;-65
2023/02/23 00:21:55;;;;;;;31.75;19.85;;;;;;;8.96;93.64;100820.91;5094982;28;20459;-66
2023/02/23 00:24:25;;;;;;;30.98;19.05;;;;;;;9.01;92.67;100823.56;5078451;28;20051;-66
2023/02/23 00:26:53;;;;;;;27.45;19.10;;;;;;;8.83;93.04;100833.47;5094724;28;20044;-65
2023/02/23 00:29:23;;;;;;;27.77;20.20;;;;;;;8.98;93.22;100833.19;5078447;28;20043;-65
2023/02/23 00:31:51;;;;;;;35.75;21.52;;;;;;;9.02;92.76;100830.66;5044251;28;20115;-65
2023/02/23 00:34:20;;;;;;;31.63;20.00;;;;;;;9.25;92.48;100826.97;5078882;28;20055;-65
2023/02/23 00:36:53;;;;;;;27.17;19.45;;;;;;;9.22;91.60;100824.84;5094718;28;20055;-65
2023/02/23 00:39:25;;;;;;;26.13;20.38;;;;;;;8.86;92.99;100832.84;5078442;28;20166;-65
2023/02/23 00:41:54;;;;;;;30.52;19.50;;;;;;;9.00;92.64;100832.88;5076460;28;20052;-65
2023/02/23 00:44:22;;;;;;;29.42;19.70;;;;;;;9.35;92.66;100834.22;5077086;28;20056;-65
2023/02/23 00:46:50;;;;;;;30.10;20.48;;;;;;;9.13;90.96;100834.06;5079554;28;20040;-65
2023/02/23 00:49:20;;;;;;;32.92;20.17;;;;;;;9.16;92.32;100837.03;5082450;28;20047;-65
2023/02/23 00:51:48;;;;;;;27.27;19.08;;;;;;;8.86;92.20;100835.59;5080952;28;20070;-65
2023/02/23 00:54:16;;;;;;;33.17;20.85;;;;;;;8.81;93.39;100832.09;5099305;28;20055;-66
2023/02/23 00:56:44;;;;;;;31.13;20.17;;;;;;;9.07;92.23;100833.31;5079776;28;20047;-65
2023/02/23 00:59:12;;;;;;;32.70;20.75;;;;;;;8.79;92.54;100837.91;5081271;28;20063;-65
2023/02/23 01:01:40;;;;;;;32.22;20.17;;;;;;;9.25;92.03;100831.66;5098074;28;20047;-64
2023/02/23 01:04:10;;;;;;;30.30;19.52;;;;;;;9.29;90.92;100835.44;5100293;28;20051;-65
2023/02/23 01:06:39;;;;;;;33.88;19.75;;;;;;;8.94;91.11;100837.66;5065721;28;20044;-64
2023/02/23 01:09:12;;;;;;;31.20;20.63;;;;;;;8.74;92.75;100837.16;5099948;28;20059;-65
2023/02/23 01:11:40;;;;;;;28.85;19.23;;;;;;;8.85;92.75;100828.47;5083832;28;20036;-64
2023/02/23 01:14:09;;;;;;;29.10;18.98;;;;;;;8.78;92.17;100839.03;5102314;28;20055;-66
2023/02/23 01:16:37;;;;;;;26.13;18.40;;;;;;;8.97;92.53;100834.31;5100013;28;20119;-64
2023/02/23 01:19:05;;;;;;;31.52;18.85;;;;;;;8.76;92.22;100844.00;5102168;28;20047;-65
2023/02/23 01:21:38;;;;;;;26.65;17.70;;;;;;;8.56;92.64;100846.25;5083150;28;20043;-66
2023/02/23 01:24:09;;;;;;;29.58;17.83;;;;;;;8.49;94.01;100846.59;5101835;28;20050;-65
2023/02/23 01:26:39;;;;;;;28.53;17.50;;;;;;;8.26;95.35;100846.66;5118220;28;20051;-65
2023/02/23 01:29:15;;;;;;;26.45;17.45;;;;;;;8.19;96.39;100827.78;5119807;28;20074;-65
2023/02/23 01:31:46;;;;;;;31.17;17.48;;;;;;;8.45;95.64;100833.75;5118093;28;20047;-65
2023/02/23 01:34:18;;;;;;;32.55;16.45;;;;;;;8.66;94.06;100837.84;5102349;28;20051;-65
2023/02/23 01:36:46;;;;;;;28.30;17.90;;;;;;;8.45;94.03;100834.59;5118292;28;20054;-66
2023/02/23 01:39:16;;;;;;;29.38;16.85;;;;;;;8.33;95.32;100838.88;5101920;28;20070;-65
2023/02/23 01:41:44;;;;;;;23.67;15.95;;;;;;;8.26;95.00;100839.25;5099865;28;20040;-65
2023/02/23 01:44:11;;;;;;;23.65;14.90;;;;;;;8.38;94.40;100836.88;5118701;28;20056;-65
2023/02/23 01:46:42;;;;;;;23.55;15.95;;;;;;;8.46;94.32;100847.19;5099698;28;20060;-65
2023/02/23 01:49:18;;;;;;;26.42;15.02;;;;;;;8.67;93.71;100837.53;5100871;28;20074;-65
2023/02/23 01:51:54;;;;;;;28.15;15.45;;;;;;;8.70;92.79;100836.16;5100141;28;20055;-65
2023/02/23 01:54:25;;;;;;;24.88;13.57;;;;;;;8.55;92.71;100839.94;5084204;28;20399;-66
2023/02/23 01:56:56;;;;;;;23.80;13.80;;;;;;;8.52;93.09;100845.19;5117394;28;20051;-67
2023/02/23 01:59:33;;;;;;;28.33;15.00;;;;;;;8.61;92.57;100838.72;5084032;28;20055;-65
2023/02/23 02:02:03;;;;;;;24.00;14.43;;;;;;;8.99;91.19;100829.34;5099328;28;20047;-65
2023/02/23 02:04:45;;;;;;;29.80;14.27;;;;;;;8.85;90.16;100823.00;5102017;28;20062;-65
2023/02/23 02:07:22;;;;;;;25.15;13.52;;;;;;;8.75;91.01;100830.56;5085532;28;20055;-65
2023/02/23 02:12:51;;;;;;;32.33;13.90;;;;;;;8.26;93.48;100828.28;5087366;28;20059;-65
2023/02/23 02:15:21;;;;;;;25.30;13.55;;;;;;;8.27;92.97;100824.41;5100769;28;20040;-66
2023/02/23 02:18:22;;;;;;;22.05;14.02;;;;;;;8.24;93.40;100824.19;5083099;28;20059;-65
2023/02/23 02:21:03;;;;;;;25.38;13.60;;;;;;;8.64;93.28;100823.59;5073386;28;20071;-67
2023/02/23 02:23:58;;;;;;;24.15;13.38;;;;;;;8.74;92.14;100823.44;5119148;28;20059;-65
2023/02/23 02:26:44;;;;;;;26.52;12.10;;;;;;;8.72;90.75;100823.72;5065092;28;20047;-64
2023/02/23 02:29:30;;;;;;;28.10;13.30;;;;;;;8.29;92.49;100821.38;5099758;28;20060;-65
2023/02/23 02:32:12;;;;;;;26.58;12.90;;;;;;;8.18;93.45;100828.06;5099062;28;20036;-65
2023/02/23 02:34:41;;;;;;;26.75;13.05;;;;;;;8.38;92.96;100827.81;5100283;28;20086;-65
2023/02/23 02:37:35;;;;;;;26.00;13.18;;;;;;;7.89;94.24;100828.16;5117220;28;20406;-65
2023/02/23 02:40:20;;;;;;;23.83;12.60;;;;;;;8.04;95.10;100836.19;5115249;28;20441;-65
2023/02/23 02:42:59;;;;;;;19.52;12.15;;;;;;;8.26;93.83;100835.69;5117095;28;20498;-66
2023/02/23 02:45:42;;;;;;;24.43;11.43;;;;;;;7.90;94.27;100838.03;5099033;28;20051;-65
2023/02/23 02:48:48;;;;;;;22.80;11.32;;;;;;;8.22;94.09;100832.69;5100330;28;20289;-65
2023/02/23 02:51:24;;;;;;;23.33;12.18;;;;;;;8.07;93.53;100837.56;5078847;28;20051;-70
2023/02/23 02:54:06;;;;;;;22.25;11.20;;;;;;;8.29;93.50;100827.69;5083397;28;20051;-70
2023/02/23 02:56:39;;;;;;;26.92;11.15;;;;;;;8.54;92.12;100838.28;5099049;28;20047;-69
2023/02/23 04:19:56;;;;;;;27.23;15.00;;;;;;;7.19;95.20;100842.63;5099729;28;20063;-69
2023/02/23 04:22:24;;;;;;;30.00;14.60;;;;;;;7.43;94.57;100843.47;5101236;28;20055;-69
2023/02/23 04:24:52;;;;;;;25.08;13.95;;;;;;;7.52;94.59;100849.97;5121382;28;20056;-69
2023/02/23 04:27:19;;;;;;;26.25;13.52;;;;;;;7.17;96.09;100853.88;5101403;28;20106;-69
2023/02/23 04:29:46;;;;;;;27.05;13.50;;;;;;;7.11;97.67;100852.31;5119341;28;20062;-69
2023/02/23 04:32:17;;;;;;;27.35;13.35;;;;;;;7.12;97.74;100853.09;5119837;28;20043;-69
2023/02/23 04:34:45;;;;;;;24.42;13.77;;;;;;;7.17;98.10;100844.81;5086554;28;20058;-69
2023/02/23 04:37:12;;;;;;;27.55;13.85;;;;;;;7.31;98.08;100851.28;5119676;28;20055;-69
2023/02/23 04:39:41;;;;;;;29.08;12.85;;;;;;;7.36;97.13;100843.81;5120635;28;20043;-70
2023/02/23 04:42:09;;;;;;;27.23;13.60;;;;;;;7.06;97.37;100844.09;5118968;28;20036;-70
2023/02/23 04:44:36;;;;;;;29.67;14.30;;;;;;;7.26;97.72;100852.16;5120204;28;20047;-69
2023/02/23 04:47:04;;;;;;;28.90;14.10;;;;;;;7.05;97.95;100853.44;5119565;28;20055;-69
2023/02/23 04:49:31;;;;;;;29.65;13.77;;;;;;;6.97;98.58;100845.84;5102849;28;20051;-69
2023/02/23 04:51:59;;;;;;;26.85;15.57;;;;;;;6.85;99.41;100848.94;5108296;28;20047;-69
2023/02/23 04:54:26;;;;;;;27.65;13.18;;;;;;;7.01;99.54;100860.56;5102091;28;20058;-69
2023/02/23 04:56:53;;;;;;;31.52;13.93;;;;;;;7.18;99.13;100866.47;5100476;28;20043;-69
2023/02/23 04:59:21;;;;;;;28.65;14.02;;;;;;;7.59;97.51;100864.97;5120610;28;20051;-69
2023/02/23 05:01:48;;;;;;;28.40;14.43;;;;;;;7.62;95.74;100867.13;5119178;28;20040;-69
2023/02/23 05:04:16;;;;;;;24.55;12.65;;;;;;;7.68;94.97;100876.94;5102131;28;20048;-69
2023/02/23 05:06:43;;;;;;;26.80;14.13;;;;;;;7.43;95.69;100884.59;5118774;28;20051;-69
2023/02/23 05:09:10;;;;;;;26.67;14.43;;;;;;;7.64;95.14;100886.03;5119923;28;20418;-66
2023/02/23 05:11:38;;;;;;;23.17;13.50;;;;;;;7.69;93.78;100884.06;5117557;28;20048;-65
2023/02/23 05:14:05;;;;;;;25.98;15.57;;;;;;;7.63;94.01;100893.44;5120111;28;20047;-64
2023/02/23 05:16:32;;;;;;;27.58;16.00;;;;;;;7.52;94.44;100886.44;5083710;28;20047;-64
2023/02/23 05:19:00;;;;;;;20.45;14.68;;;;;;;7.71;93.77;100879.09;5119137;28;20048;-66
2023/02/23 05:21:27;;;;;;;24.88;14.95;;;;;;;7.71;92.57;100887.31;5108542;28;20044;-65
2023/02/23 05:23:56;;;;;;;26.42;14.50;;;;;;;7.75;92.34;100882.06;5099867;28;20052;-65
2023/02/23 05:26:23;;;;;;;28.65;15.77;;;;;;;7.19;93.45;100892.75;5098088;28;20046;-65
2023/02/23 05:28:50;;;;;;;29.48;16.55;;;;;;;7.12;96.22;100888.69;5105852;28;20054;-65
2023/02/23 05:31:19;;;;;;;25.48;15.25;;;;;;;7.49;94.98;100886.19;5117558;28;20052;-65
2023/02/23 05:33:47;;;;;;;23.55;14.95;;;;;;;7.40;94.15;100893.38;5120105;28;20051;-66
2023/02/23 05:36:16;;;;;;;31.00;15.95;;;;;;;7.25;94.30;100890.78;5117833;28;20058;-65
2023/02/23 05:38:45;;;;;;;25.23;15.88;;;;;;;7.19;94.99;100895.50;5119629;28;20070;-66
2023/02/23 05:41:15;;;;;;;28.67;15.70;;;;;;;7.29;94.60;100891.84;5107238;28;20040;-65
2023/02/23 05:43:42;;;;;;;;;;;;;;;7.42;93.71;100900.22;5099959;28;20044;-65
2023/02/23 05:46:15;;;;;;;29.70;15.43;;;;;;;7.33;94.01;100896.47;5079756;28;19920;-65
2023/02/23 05:48:43;;;;;;;30.10;16.60;;;;;;;7.25;94.92;100894.38;5098236;28;20491;-65
2023/02/23 05:51:12;;;;;;;29.60;16.20;;;;;;;7.47;93.85;100905.66;5079395;28;20047;-65
2023/02/23 05:53:40;;;;;;;29.95;17.35;;;;;;;7.27;92.49;100902.28;5099082;28;20040;-64
2023/02/23 05:56:12;;;;;;;26.60;15.88;;;;;;;7.40;92.71;100898.88;5097713;28;20051;-65
2023/02/23 05:58:39;;;;;;;30.45;16.70;;;;;;;7.48;92.60;100901.81;5098774;28;20044;-65
2023/02/23 06:01:07;;;;;;;25.40;16.65;;;;;;;7.22;92.87;100896.84;5079256;28;20055;-65
2023/02/23 06:03:34;;;;;;;26.60;16.65;;;;;;;7.44;93.23;100895.28;5081088;28;20052;-65
2023/02/23 06:06:02;;;;;;;26.25;16.42;;;;;;;7.48;92.70;100901.81;5097248;28;20074;-65
2023/02/23 06:08:29;;;;;;;25.10;15.93;;;;;;;7.59;91.45;100892.38;5091155;28;20074;-64
2023/02/23 06:10:56;;;;;;;30.83;17.55;;;;;;;7.50;91.87;100896.84;5115425;28;20059;-67
2023/02/23 06:13:25;;;;;;;30.30;16.60;;;;;;;7.69;92.05;100894.19;5118843;28;20051;-69
2023/02/23 06:15:52;;;;;;;24.95;16.13;;;;;;;7.62;92.62;100891.81;5117353;28;20051;-67
2023/02/23 06:18:21;;;;;;;25.33;16.83;;;;;;;7.70;91.67;100890.34;5119316;28;20056;-67
2023/02/23 06:20:48;;;;;;;23.85;16.95;;;;;;;8.02;90.16;100887.78;5117247;28;20039;-68
2023/02/23 06:23:17;;;;;;;25.52;16.52;;;;;;;8.15;88.94;100878.88;5117559;28;20040;-70
2023/02/23 06:25:45;;;;;;;25.40;15.75;;;;;;;8.36;88.22;100895.91;5115277;28;20055;-67
2023/02/23 06:28:14;;;;;;;24.65;15.63;;;;;;;7.92;88.04;100890.66;5112221;28;20043;-70
2023/02/23 06:30:41;;;;;;;28.50;17.25;;;;;;;7.84;88.61;100894.06;5115810;28;20065;-70
2023/02/23 06:33:09;;;;;;;24.88;17.25;;;;;;;7.60;89.68;100891.28;5107034;28;20058;-69
2023/02/23 06:35:36;;;;;;;30.67;18.27;;;;;;;7.72;89.04;100894.44;5115661;28;20467;-69
2023/02/23 06:38:05;;;;;;;25.73;17.13;;;;;;;7.45;90.50;100893.34;5100380;28;20070;-69
2023/02/23 06:40:32;;;;;;;33.47;17.90;;;;;;;7.85;89.58;100888.28;5116739;28;20094;-69
2023/02/23 06:43:02;;;;;;;30.98;18.23;;;;;;;7.77;87.91;100894.41;5115551;28;20059;-70
2023/02/23 06:45:30;;;;;;;26.60;18.02;;;;;;;7.85;88.13;100901.97;5115123;28;20055;-70
2023/02/23 06:47:58;;;;;;;29.27;17.33;;;;;;;7.27;90.11;100907.78;5118137;28;20058;-72
2023/02/23 06:50:26;;;;;;;26.20;17.20;;;;;;;7.34;90.67;100905.53;5083118;28;20106;-71
2023/02/23 06:52:56;;;;;;;32.80;18.10;;;;;;;7.46;90.55;100906.75;5099075;28;20047;-71
2023/02/23 06:55:23;;;;;;;25.92;18.02;;;;;;;7.58;89.08;100911.88;5118015;28;20055;-71
2023/02/23 06:57:52;;;;;;;24.55;17.45;;;;;;;7.38;90.04;100907.38;5117669;28;20081;-70
2023/02/23 07:00:20;;;;;;;29.55;18.65;;;;;;;7.23;90.33;100918.47;5098697;28;20052;-70
2023/02/23 07:02:48;;;;;;;29.75;18.50;;;;;;;7.13;92.10;100909.53;5117045;28;20047;-70
2023/02/23 07:05:15;;;;;;;26.30;18.48;;;;;;;7.14;91.55;100913.88;5118102;28;20043;-71
2023/02/23 07:07:44;;;;;;;26.30;18.13;;;;;;;7.24;90.97;100913.81;5116940;28;20055;-70
2023/02/23 07:10:12;;;;;;;28.25;18.20;;;;;;;7.04;91.92;100913.97;5099528;28;20391;-69
2023/02/23 07:12:39;;;;;;;33.28;19.10;;;;;;;7.03;91.73;100906.84;5061489;28;20056;-70
2023/02/23 07:15:07;;;;;;;31.85;19.73;;;;;;;7.20;90.99;100923.72;5059307;28;20417;-71
2023/02/23 07:17:35;;;;;;;27.48;18.35;;;;;;;7.45;90.07;100921.56;5096247;28;20063;-69
2023/02/23 07:20:03;;;;;;;31.00;20.15;;;;;;;7.31;89.42;100923.34;5091554;28;20071;-69
2023/02/23 07:22:32;;;;;;;25.77;19.30;;;;;;;7.77;88.43;100930.03;5059159;28;20494;-69
2023/02/23 07:25:00;;;;;;;25.73;19.13;;;;;;;8.05;86.93;100936.59;5089547;28;20053;-69
2023/02/23 07:27:28;;;;;;;27.42;18.23;;;;;;;8.22;86.86;100934.19;5093721;28;20475;-69
2023/02/23 07:29:55;;;;;;;27.73;19.77;;;;;;;8.52;86.10;100935.78;5061572;28;20506;-67
2023/02/23 07:32:23;;;;;;;28.73;18.88;;;;;;;8.37;84.15;100945.03;5102012;28;20090;-71
2023/02/23 07:34:52;;;;;;;29.77;19.30;;;;;;;8.05;85.13;100947.56;5088058;28;20056;-72
2023/02/23 07:37:20;;;;;;;27.00;20.10;;;;;;;7.67;85.67;100956.75;5077419;28;20078;-71
2023/02/23 07:39:48;;;;;;;30.17;19.92;;;;;;;7.58;89.35;100962.00;5078976;28;20052;-70
2023/02/23 07:42:16;;;;;;;35.17;20.73;;;;;;;7.27;89.09;100965.31;5077881;28;20052;-70
2023/02/23 07:44:44;;;;;;;32.60;21.15;;;;;;;7.25;90.30;100973.81;5058147;28;20048;-70
2023/02/23 07:47:11;;;;;;;31.90;20.75;;;;;;;7.32;90.07;100971.53;5074549;28;20044;-68
2023/02/23 07:49:39;;;;;;;28.85;19.48;;;;;;;7.63;89.51;100969.38;5085525;28;20051;-71
2023/02/23 07:52:07;;;;;;;30.55;19.75;;;;;;;7.54;90.16;100968.34;5091704;28;20044;-69
2023/02/23 07:54:34;;;;;;;29.02;19.42;;;;;;;7.66;88.38;100971.53;5091699;28;20047;-70
2023/02/23 07:57:02;;;;;;;30.95;19.63;;;;;;;7.43;89.29;100964.88;5069286;28;20063;-70
2023/02/23 07:59:30;;;;;;;28.17;18.70;;;;;;;7.57;88.69;100968.59;5095193;28;20052;-69
2023/02/23 08:01:58;;;;;;;33.10;20.70;;;;;;;7.34;89.39;100965.78;5087552;28;21064;-69
2023/02/23 08:04:25;;;;;;;30.20;19.98;;;;;;;7.61;89.55;100955.97;5070327;28;20049;-68
2023/02/23 08:06:53;;;;;;;29.02;19.20;;;;;;;8.00;88.48;100961.34;5074584;28;20044;-70
2023/02/23 08:09:21;;;;;;;30.20;19.38;;;;;;;7.56;87.25;100969.72;5094365;28;20047;-69
2023/02/23 08:11:48;;;;;;;29.98;20.45;;;;;;;7.86;88.62;100960.41;5073124;28;20060;-70
2023/02/23 08:14:16;;;;;;;27.48;19.30;;;;;;;8.12;86.74;100970.00;5094378;28;20059;-72
2023/02/23 08:16:44;;;;;;;29.90;19.25;;;;;;;7.90;86.34;100966.91;5067968;28;20051;-71
2023/02/23 08:19:12;;;;;;;27.70;19.67;;;;;;;7.97;85.88;100970.97;5078671;28;20052;-70
2023/02/23 08:21:39;;;;;;;33.70;19.08;;;;;;;8.00;86.50;100973.13;5077009;28;20056;-71
2023/02/23 08:24:06;;;;;;;34.45;20.70;;;;;;;8.01;85.55;100962.97;5078576;28;20048;-70
2023/02/23 08:26:36;;;;;;;31.92;20.27;;;;;;;8.07;85.41;100964.56;5084292;28;20052;-71
2023/02/23 08:29:04;;;;;;;;;;;;;;;7.92;86.10;100964.72;5087920;28;20052;-74
2023/02/23 08:31:31;;;;;;;33.00;20.77;;;;;;;7.99;86.26;100967.91;5070951;28;19924;-73
2023/02/23 08:33:59;;;;;;;34.58;20.05;;;;;;;8.16;86.69;100967.50;5071408;28;20040;-70
2023/02/23 08:36:26;;;;;;;29.70;17.92;;;;;;;9.27;88.49;100958.59;5060532;28;20059;-37
2023/02/23 08:38:54;;;;;;;26.88;17.60;;;;;;;9.41;78.36;100949.31;5076881;28;20040;-70
2023/02/23 08:41:21;;;;;;;25.48;17.35;;;;;;;9.31;78.28;100954.94;5081509;28;20051;-65
2023/02/23 08:43:49;;;;;;;31.73;18.65;;;;;;;8.86;79.27;100955.63;5075382;28;20063;-65
2023/02/23 08:46:19;;;;;;;30.40;19.63;;;;;;;8.84;80.17;100961.41;5072669;28;20051;-65
2023/02/23 08:48:46;;;;;;;;;;;;;;;8.98;79.49;100956.00;5098640;28;20408;-64
2023/02/23 08:51:14;;;;;;;28.70;18.40;;;;;;;8.74;80.94;100966.22;5076832;28;20367;-65
2023/02/23 08:53:41;;;;;;;37.75;19.48;;;;;;;8.83;80.57;100964.47;5101275;28;20039;-64
2023/02/23 08:56:11;;;;;;;77.78;41.72;;;;;;;8.83;80.02;100973.53;5092486;28;20131;-64
2023/02/23 08:58:39;;;;;;;44.40;24.77;;;;;;;8.72;80.36;100969.28;5091019;28;20044;-63
2023/02/23 09:01:06;;;;;;;39.90;21.73;;;;;;;8.83;80.48;100965.28;5087152;28;20044;-64
2023/02/23 09:03:35;;;;;;;33.00;20.15;;;;;;;9.04;79.81;100969.38;5106563;28;20066;-65
2023/02/23 09:06:08;;;;;;;36.60;19.73;;;;;;;9.04;78.94;100966.63;5100171;28;20051;-65
2023/02/23 09:08:37;;;;;;;32.35;19.77;;;;;;;9.03;79.40;100969.69;5104586;27;20063;-64
2023/02/23 09:11:04;;;;;;;29.52;19.95;;;;;;;8.66;80.32;100969.66;5108691;28;20047;-63
2023/02/23 09:13:32;;;;;;;35.58;20.10;;;;;;;8.64;80.24;100972.69;5113807;27;20052;-64
2023/02/23 09:16:00;;;;;;;42.85;28.25;;;;;;;8.83;80.76;100979.03;5097294;28;20052;-64
2023/02/23 09:18:28;;;;;;;34.17;20.73;;;;;;;8.94;80.37;100976.97;5104453;27;20043;-64
2023/02/23 09:20:56;;;;;;;36.03;20.75;;;;;;;9.18;79.71;100977.69;5125058;27;20059;-64
2023/02/23 09:23:27;;;;;;;34.03;20.65;;;;;;;9.09;80.09;100982.22;5131302;27;20486;-64
2023/02/23 09:25:54;;;;;;;33.45;21.40;;;;;;;8.94;81.00;100980.50;5124740;27;20047;-64
2023/02/23 09:28:21;;;;;;;35.00;21.77;;;;;;;9.05;80.52;100984.75;5120616;27;20051;-65
2023/02/23 09:30:49;;;;;;;32.72;21.90;;;;;;;9.04;81.01;100974.88;5117917;27;20043;-68
2023/02/23 09:33:17;;;;;;;34.13;21.83;;;;;;;9.24;80.07;100984.72;5111923;27;20046;-63
2023/02/23 09:35:44;;;;;;;36.80;20.88;;;;;;;8.95;80.75;100984.91;5107196;27;20062;-65
2023/02/23 09:38:11;;;;;;;33.13;22.08;;;;;;;8.81;81.71;100992.22;5113219;28;20056;-65
2023/02/23 09:40:48;;;;;;;35.10;21.88;;;;;;;9.07;81.61;100996.25;5109273;27;20040;-65
2023/02/23 09:43:23;;;;;;;39.50;21.27;;;;;;;8.38;83.00;101007.06;5106658;28;20054;-63
2023/02/23 09:46:14;;;;;;;35.03;21.58;;;;;;;8.10;84.64;100998.81;5114572;28;20047;-64
2023/02/23 09:48:42;;;;;;;37.35;22.67;;;;;;;8.08;85.37;101006.50;5111671;27;20059;-64
2023/02/23 09:51:15;;;;;;;34.65;21.95;;;;;;;8.34;85.37;101007.91;5114205;27;20051;-65
2023/02/23 09:53:47;;;;;;;34.28;22.05;;;;;;;8.64;84.08;101005.63;5090235;28;20067;-66
2023/02/23 09:56:38;;;;;;;43.80;22.55;;;;;;;8.53;84.21;101008.78;5063083;28;20055;-66
2023/02/23 09:59:14;;;;;;;33.85;23.27;;;;;;;8.49;84.28;101010.50;5088404;28;20407;-64
2023/02/23 10:01:47;;;;;;;34.70;23.15;;;;;;;8.29;83.51;101005.22;5114979;28;20049;-65
2023/02/23 10:04:22;;;;;;;39.90;24.17;;;;;;;8.22;85.28;101013.78;5109613;27;20051;-64
2023/02/23 10:06:58;;;;;;;38.92;25.35;;;;;;;8.05;85.49;101005.19;5116927;27;20044;-65
2023/02/23 10:09:51;;;;;;;38.65;24.00;;;;;;;7.88;87.16;101007.50;5083703;28;20058;-64
2023/02/23 10:12:29;;;;;;;40.47;23.58;;;;;;;8.12;86.02;101005.66;5099581;27;20516;-65
2023/02/23 10:15:05;;;;;;;39.30;24.23;;;;;;;8.15;85.91;101013.31;5098491;27;20039;-64
2023/02/23 10:18:04;;;;;;;38.67;23.13;;;;;;;7.85;87.43;101002.63;5121424;27;20050;-64
2023/02/23 10:20:56;;;;;;;37.63;23.05;;;;;;;8.08;86.08;100996.38;5116505;27;21572;-66
2023/02/23 10:23:32;;;;;;;35.75;23.30;;;;;;;8.17;86.13;101004.78;5093697;27;20047;-65
2023/02/23 10:26:01;;;;;;;36.67;22.55;;;;;;;8.35;84.32;101007.63;5120631;27;20116;-67
2023/02/23 10:28:34;;;;;;;39.75;22.80;;;;;;;8.39;83.79;101002.34;5127343;27;20390;-66
2023/02/23 10:31:15;;;;;;;33.00;22.83;;;;;;;8.52;83.69;100999.75;5116785;27;20058;-64
2023/02/23 10:33:43;;;;;;;37.45;22.58;;;;;;;8.76;83.51;100996.97;5117394;27;20047;-64
2023/02/23 10:36:18;;;;;;;33.78;22.10;;;;;;;9.06;81.23;100991.06;5113323;27;20040;-64
2023/02/23 10:38:46;;;;;;;38.35;23.02;;;;;;;9.41;79.28;100995.22;5075263;27;20051;-64
2023/02/23 10:41:13;;;;;;;35.88;22.33;;;;;;;9.44;78.49;100980.84;5103306;27;20040;-64
2023/02/23 10:43:41;;;;;;;35.03;22.83;;;;;;;9.27;78.79;100983.34;5105225;28;20043;-64
2023/02/23 10:46:22;;;;;;;44.40;23.13;;;;;;;9.39;78.54;100984.50;5119724;27;20039;-65
2023/02/23 10:48:50;;;;;;;40.35;23.05;;;;;;;9.33;78.20;100987.66;5107105;27;20048;-65
2023/02/23 10:51:22;;;;;;;36.42;23.38;;;;;;;8.90;80.65;100990.47;5113002;27;20035;-64
2023/02/23 10:53:51;;;;;;;35.70;23.58;;;;;;;9.44;79.33;100994.59;5076160;28;20036;-64
2023/02/23 10:56:20;;;;;;;35.50;23.47;;;;;;;9.36;78.28;101000.78;5104291;27;20039;-65
2023/02/23 10:58:53;;;;;;;34.28;23.20;;;;;;;9.13;78.81;100998.94;5103141;27;20297;-65
2023/02/23 11:01:43;;;;;;;37.20;23.40;;;;;;;9.23;78.96;101002.34;5092877;27;20044;-64
2023/02/23 11:04:30;;;;;;;33.92;22.73;;;;;;;9.20;78.63;101000.22;5108840;27;20050;-64
2023/02/23 11:07:14;;;;;;;37.05;24.20;;;;;;;9.68;77.95;100992.56;5110024;27;20050;-66
2023/02/23 11:09:45;;;;;;;41.55;23.15;;;;;;;9.32;77.69;100997.81;5114140;27;20039;-63
2023/02/23 11:12:21;;;;;;;37.88;23.77;;;;;;;9.73;77.67;100989.72;5112767;27;20054;-64
2023/02/23 11:14:51;;;;;;;40.85;25.52;;;;;;;9.20;78.02;100991.13;5107640;28;20066;-64
2023/02/23 11:17:22;;;;;;;37.13;24.77;;;;;;;9.64;77.60;100986.03;5117857;27;20050;-64
2023/02/23 11:19:50;;;;;;;50.33;26.88;;;;;;;9.51;77.06;100989.53;5123045;27;20044;-65
2023/02/23 11:22:25;;;;;;;40.78;26.90;;;;;;;9.42;77.41;100988.59;5095312;28;20071;-64
2023/02/23 11:24:54;;;;;;;50.33;30.42;;;;;;;9.47;77.07;100988.50;5107608;27;20506;-66
2023/02/23 11:27:25;;;;;;;38.30;24.95;;;;;;;9.62;76.43;100991.03;5091510;27;20051;-65
2023/02/23 11:29:58;;;;;;;42.60;25.75;;;;;;;9.43;77.37;100985.53;5071340;28;20052;-69
2023/02/23 11:32:29;;;;;;;40.00;24.60;;;;;;;9.49;76.17;100984.34;5095259;27;20501;-69
2023/02/23 11:35:30;;;;;;;35.58;23.90;;;;;;;9.20;78.03;100980.97;5101978;27;20039;-66
2023/02/23 11:37:57;;;;;;;35.40;23.48;;;;;;;9.25;78.52;100980.88;5041564;27;20055;-67
2023/02/23 11:40:25;;;;;;;39.10;23.02;;;;;;;9.64;76.92;100975.84;5122260;27;20394;-69
2023/02/23 11:43:00;;;;;;;45.00;31.83;;;;;;;9.92;76.17;100980.28;5092838;27;20583;-67
2023/02/23 11:45:32;;;;;;;41.00;23.25;;;;;;;10.16;74.84;100983.72;5106671;28;20047;-68
2023/02/23 11:48:01;;;;;;;36.00;21.92;;;;;;;9.65;76.02;100972.00;5099467;28;20043;-72
2023/02/23 11:50:31;;;;;;;34.50;22.05;;;;;;;9.60;76.46;100974.00;5109907;27;20039;-67
2023/02/23 11:53:15;;;;;;;35.60;22.98;;;;;;;9.53;76.78;100963.41;5102763;28;20043;-70
2023/02/23 11:55:53;;;;;;;39.95;21.40;;;;;;;9.77;77.71;100963.25;5094517;28;20146;-68
2023/02/23 11:58:25;;;;;;;28.95;20.00;;;;;;;9.97;75.99;100963.69;5090641;28;20048;-70
2023/02/23 12:01:02;;;;;;;31.35;20.40;;;;;;;9.97;75.55;100966.44;5111068;27;20058;-70
2023/02/23 12:03:32;;;;;;;52.72;31.95;;;;;;;9.84;76.48;100963.66;5084052;27;20043;-70
2023/02/23 12:06:01;;;;;;;34.88;21.33;;;;;;;10.09;76.00;100968.75;5095858;28;20059;-70
2023/02/23 12:08:34;;;;;;;59.08;32.92;;;;;;;10.27;76.10;100950.53;5072503;28;20062;-70
2023/02/23 12:11:06;;;;;;;60.13;36.63;;;;;;;10.53;74.83;100948.88;5090199;28;20403;-70
2023/02/23 12:13:49;;;;;;;32.92;21.55;;;;;;;10.70;73.76;100954.56;5094815;28;20055;-70
2023/02/23 12:16:23;;;;;;;37.50;19.15;;;;;;;10.58;73.91;100952.34;5094218;28;20608;-67
2023/02/23 12:19:03;;;;;;;29.10;19.33;;;;;;;10.43;73.93;100958.16;5115498;28;20051;-67
2023/02/23 12:21:33;;;;;;;;;;;;;;;10.50;74.19;100957.72;5096296;28;20047;-67
2023/02/23 12:24:07;;;;;;;29.77;19.10;;;;;;;10.61;73.83;100953.66;5107326;28;19919;-68
2023/02/23 12:26:48;;;;;;;32.63;21.50;;;;;;;10.98;73.21;100951.44;5117157;28;20043;-68
2023/02/23 12:29:32;;;;;;;28.35;19.92;;;;;;;10.49;73.83;100959.69;5129369;28;20410;-67
2023/02/23 12:32:01;;;;;;;30.52;21.55;;;;;;;10.25;74.73;100950.00;5098855;28;20533;-67
2023/02/23 12:34:35;;;;;;;30.05;20.05;;;;;;;10.45;74.97;100957.84;5125205;28;20043;-66
2023/02/23 12:37:28;;;;;;;27.23;20.15;;;;;;;10.43;74.20;100958.16;5104877;28;20359;-67
2023/02/23 12:40:01;;;;;;;31.25;18.77;;;;;;;10.33;74.93;100958.38;5128996;27;20044;-69
2023/02/23 12:42:44;;;;;;;27.90;19.25;;;;;;;10.87;73.80;100949.22;5122009;27;21425;-66
2023/02/23 12:45:42;;;;;;;26.48;17.48;;;;;;;10.81;73.10;100956.78;5101877;28;20048;-69
2023/02/23 12:48:28;;;;;;;26.38;17.23;;;;;;;10.62;74.16;100949.75;5080469;28;20052;-68
2023/02/23 12:51:05;;;;;;;46.20;19.90;;;;;;;10.58;74.39;100954.28;5097763;28;20054;-66
2023/02/23 12:53:33;;;;;;;31.48;18.40;;;;;;;10.59;73.78;100953.97;5119309;27;20039;-67
2023/02/23 12:56:26;;;;;;;27.63;18.73;;;;;;;10.02;75.91;100952.59;5093770;27;20125;-67
2023/02/23 12:59:13;;;;;;;27.55;18.20;;;;;;;10.18;75.38;100950.41;5100450;27;20059;-67
2023/02/23 13:01:59;;;;;;;30.10;18.10;;;;;;;10.60;74.42;100949.28;5116986;27;20048;-67